sensor_id;sensor_type;location;lat;lon;timestamp;P1;durP1;ratioP1;P2;durP2;ratioP2
20888;SDS011;10604;51.976;7.594;2022-12-16T00:02:00;33.13;;;18.83;;
20888;SDS011;10604;51.976;7.594;2022-12-16T00:04:26;33.78;;;20.65;;
20888;SDS011;10604;51.976;7.594;2022-12-16T00:06:51;36.25;;;19.83;;
20888;SDS011;10604;51.976;7.594;2022-12-16T00:09:17;30.42;;;19.35;;
20888;SDS011;10604;51.976;7.594;2022-12-16T00:11:42;34.88;;;18.85;;
20888;SDS011;10604;51.976;7.594;2022-12-16T00:14:07;30.10;;;18.30;;
20888;SDS011;10604;51.976;7.594;2022-12-16T00:16:33;33.55;;;18.60;;
20888;SDS011;10604;51.976;7.594;2022-12-16T00:18:58;37.13;;;19.00;;
20888;SDS011;10604;51.976;7.594;2022-12-16T00:21:23;37.97;;;20.17;;
20888;SDS011;10604;51.976;7.594;2022-12-16T00:23:53;34.60;;;18.42;;
20888;SDS011;10604;51.976;7.594;2022-12-16T00:26:19;34.92;;;19.35;;
20888;SDS011;10604;51.976;7.594;2022-12-16T00:28:44;38.22;;;20.52;;
20888;SDS011;10604;51.976;7.594;2022-12-16T00:31:10;34.78;;;18.00;;
20888;SDS011;10604;51.976;7.594;2022-12-16T00:33:36;34.65;;;18.80;;
20888;SDS011;10604;51.976;7.594;2022-12-16T00:36:01;33.75;;;18.17;;
20888;SDS011;10604;51.976;7.594;2022-12-16T00:38:27;33.35;;;20.63;;
20888;SDS011;10604;51.976;7.594;2022-12-16T00:40:53;33.53;;;19.58;;
20888;SDS011;10604;51.976;7.594;2022-12-16T00:43:19;40.70;;;20.88;;
20888;SDS011;10604;51.976;7.594;2022-12-16T00:45:44;38.35;;;21.02;;
20888;SDS011;10604;51.976;7.594;2022-12-16T00:48:10;34.22;;;19.10;;
20888;SDS011;10604;51.976;7.594;2022-12-16T00:50:35;35.75;;;19.80;;
20888;SDS011;10604;51.976;7.594;2022-12-16T00:53:01;38.63;;;19.55;;
20888;SDS011;10604;51.976;7.594;2022-12-16T00:55:27;37.30;;;19.67;;
20888;SDS011;10604;51.976;7.594;2022-12-16T00:57:53;33.88;;;18.40;;
20888;SDS011;10604;51.976;7.594;2022-12-16T01:00:18;32.20;;;19.40;;
20888;SDS011;10604;51.976;7.594;2022-12-16T01:02:47;35.95;;;18.70;;
20888;SDS011;10604;51.976;7.594;2022-12-16T01:05:14;29.23;;;17.73;;
20888;SDS011;10604;51.976;7.594;2022-12-16T01:07:46;32.72;;;18.63;;
20888;SDS011;10604;51.976;7.594;2022-12-16T01:10:12;29.10;;;16.00;;
20888;SDS011;10604;51.976;7.594;2022-12-16T01:12:38;29.58;;;16.25;;
20888;SDS011;10604;51.976;7.594;2022-12-16T01:15:05;31.13;;;18.92;;
20888;SDS011;10604;51.976;7.594;2022-12-16T01:17:32;28.35;;;17.70;;
20888;SDS011;10604;51.976;7.594;2022-12-16T01:19:59;31.88;;;18.65;;
20888;SDS011;10604;51.976;7.594;2022-12-16T01:22:25;29.08;;;17.52;;
20888;SDS011;10604;51.976;7.594;2022-12-16T01:24:56;37.47;;;18.13;;
20888;SDS011;10604;51.976;7.594;2022-12-16T01:27:22;31.15;;;17.95;;
20888;SDS011;10604;51.976;7.594;2022-12-16T01:29:47;31.23;;;16.58;;
20888;SDS011;10604;51.976;7.594;2022-12-16T01:32:14;27.35;;;15.85;;
20888;SDS011;10604;51.976;7.594;2022-12-16T01:34:41;28.08;;;16.67;;
20888;SDS011;10604;51.976;7.594;2022-12-16T01:37:12;28.83;;;16.10;;
20888;SDS011;10604;51.976;7.594;2022-12-16T01:39:38;27.95;;;16.52;;
20888;SDS011;10604;51.976;7.594;2022-12-16T01:42:04;30.00;;;16.90;;
20888;SDS011;10604;51.976;7.594;2022-12-16T01:44:36;28.40;;;16.02;;
20888;SDS011;10604;51.976;7.594;2022-12-16T01:47:02;32.63;;;17.58;;
20888;SDS011;10604;51.976;7.594;2022-12-16T01:49:36;28.85;;;17.90;;
20888;SDS011;10604;51.976;7.594;2022-12-16T01:52:07;30.52;;;16.60;;
20888;SDS011;10604;51.976;7.594;2022-12-16T01:54:47;30.15;;;18.38;;
20888;SDS011;10604;51.976;7.594;2022-12-16T01:57:21;36.58;;;18.25;;
20888;SDS011;10604;51.976;7.594;2022-12-16T01:59:52;38.80;;;17.98;;
20888;SDS011;10604;51.976;7.594;2022-12-16T02:02:20;32.05;;;17.55;;
20888;SDS011;10604;51.976;7.594;2022-12-16T02:04:45;28.08;;;17.05;;
20888;SDS011;10604;51.976;7.594;2022-12-16T02:07:31;27.38;;;16.67;;
20888;SDS011;10604;51.976;7.594;2022-12-16T02:09:57;28.83;;;16.45;;
20888;SDS011;10604;51.976;7.594;2022-12-16T02:34:15;29.10;;;16.60;;
20888;SDS011;10604;51.976;7.594;2022-12-16T02:39:33;29.90;;;16.02;;
20888;SDS011;10604;51.976;7.594;2022-12-16T02:45:18;29.25;;;15.98;;
20888;SDS011;10604;51.976;7.594;2022-12-16T02:47:49;26.15;;;16.00;;
20888;SDS011;10604;51.976;7.594;2022-12-16T02:50:38;28.58;;;15.95;;
20888;SDS011;10604;51.976;7.594;2022-12-16T02:53:04;26.67;;;15.15;;
20888;SDS011;10604;51.976;7.594;2022-12-16T03:03:38;25.38;;;14.20;;
20888;SDS011;10604;51.976;7.594;2022-12-16T03:06:09;26.52;;;15.75;;
20888;SDS011;10604;51.976;7.594;2022-12-16T03:08:38;27.05;;;16.05;;
20888;SDS011;10604;51.976;7.594;2022-12-16T03:11:07;24.58;;;15.45;;
20888;SDS011;10604;51.976;7.594;2022-12-16T03:13:37;31.58;;;16.73;;
20888;SDS011;10604;51.976;7.594;2022-12-16T03:16:06;26.90;;;15.63;;
20888;SDS011;10604;51.976;7.594;2022-12-16T03:18:34;28.30;;;16.65;;
20888;SDS011;10604;51.976;7.594;2022-12-16T03:21:04;31.88;;;17.48;;
20888;SDS011;10604;51.976;7.594;2022-12-16T03:24:14;33.78;;;16.67;;
20888;SDS011;10604;51.976;7.594;2022-12-16T03:31:29;30.98;;;15.98;;
20888;SDS011;10604;51.976;7.594;2022-12-16T03:36:29;29.10;;;16.45;;
20888;SDS011;10604;51.976;7.594;2022-12-16T03:38:59;24.13;;;13.82;;
20888;SDS011;10604;51.976;7.594;2022-12-16T03:41:26;28.55;;;16.70;;
20888;SDS011;10604;51.976;7.594;2022-12-16T03:43:54;24.38;;;13.40;;
20888;SDS011;10604;51.976;7.594;2022-12-16T03:46:20;23.17;;;14.35;;
20888;SDS011;10604;51.976;7.594;2022-12-16T03:48:49;33.90;;;15.27;;
20888;SDS011;10604;51.976;7.594;2022-12-16T03:51:15;33.65;;;16.45;;
20888;SDS011;10604;51.976;7.594;2022-12-16T03:53:41;32.90;;;16.42;;
20888;SDS011;10604;51.976;7.594;2022-12-16T03:56:07;30.33;;;15.73;;
20888;SDS011;10604;51.976;7.594;2022-12-16T03:58:33;30.25;;;16.35;;
20888;SDS011;10604;51.976;7.594;2022-12-16T04:00:59;23.77;;;16.35;;
20888;SDS011;10604;51.976;7.594;2022-12-16T04:03:25;30.02;;;17.15;;
20888;SDS011;10604;51.976;7.594;2022-12-16T04:05:50;26.27;;;14.85;;
20888;SDS011;10604;51.976;7.594;2022-12-16T04:08:15;29.38;;;16.38;;
20888;SDS011;10604;51.976;7.594;2022-12-16T04:10:41;31.20;;;16.13;;
20888;SDS011;10604;51.976;7.594;2022-12-16T04:13:25;26.23;;;15.25;;
20888;SDS011;10604;51.976;7.594;2022-12-16T04:16:13;26.42;;;14.90;;
20888;SDS011;10604;51.976;7.594;2022-12-16T04:18:59;23.27;;;14.45;;
20888;SDS011;10604;51.976;7.594;2022-12-16T04:21:43;29.05;;;14.45;;
20888;SDS011;10604;51.976;7.594;2022-12-16T04:24:27;24.33;;;14.80;;
20888;SDS011;10604;51.976;7.594;2022-12-16T04:26:54;26.23;;;15.77;;
20888;SDS011;10604;51.976;7.594;2022-12-16T04:29:38;28.95;;;15.50;;
20888;SDS011;10604;51.976;7.594;2022-12-16T04:32:23;23.10;;;14.10;;
20888;SDS011;10604;51.976;7.594;2022-12-16T04:34:49;25.63;;;14.80;;
20888;SDS011;10604;51.976;7.594;2022-12-16T04:37:16;29.00;;;16.33;;
20888;SDS011;10604;51.976;7.594;2022-12-16T04:40:00;28.13;;;16.13;;
20888;SDS011;10604;51.976;7.594;2022-12-16T04:42:44;32.58;;;17.40;;
20888;SDS011;10604;51.976;7.594;2022-12-16T04:45:28;34.10;;;17.52;;
20888;SDS011;10604;51.976;7.594;2022-12-16T04:48:12;29.13;;;17.92;;
20888;SDS011;10604;51.976;7.594;2022-12-16T04:50:56;32.53;;;17.73;;
20888;SDS011;10604;51.976;7.594;2022-12-16T04:53:40;31.17;;;17.60;;
20888;SDS011;10604;51.976;7.594;2022-12-16T04:56:24;25.60;;;17.42;;
20888;SDS011;10604;51.976;7.594;2022-12-16T04:59:08;31.08;;;17.50;;
20888;SDS011;10604;51.976;7.594;2022-12-16T05:01:52;29.52;;;17.33;;
20888;SDS011;10604;51.976;7.594;2022-12-16T05:04:36;26.95;;;15.63;;
20888;SDS011;10604;51.976;7.594;2022-12-16T05:07:20;21.25;;;14.60;;
20888;SDS011;10604;51.976;7.594;2022-12-16T05:10:04;30.50;;;16.85;;
20888;SDS011;10604;51.976;7.594;2022-12-16T05:12:48;39.85;;;18.33;;
20888;SDS011;10604;51.976;7.594;2022-12-16T05:15:53;40.53;;;16.67;;
20888;SDS011;10604;51.976;7.594;2022-12-16T05:18:36;31.38;;;15.40;;
20888;SDS011;10604;51.976;7.594;2022-12-16T05:21:37;35.10;;;16.55;;
20888;SDS011;10604;51.976;7.594;2022-12-16T05:24:21;27.52;;;15.68;;
20888;SDS011;10604;51.976;7.594;2022-12-16T05:27:04;28.58;;;16.05;;
20888;SDS011;10604;51.976;7.594;2022-12-16T05:29:48;22.73;;;14.90;;
20888;SDS011;10604;51.976;7.594;2022-12-16T05:32:32;34.78;;;16.73;;
20888;SDS011;10604;51.976;7.594;2022-12-16T05:35:20;26.88;;;15.27;;
20888;SDS011;10604;51.976;7.594;2022-12-16T05:38:04;29.05;;;16.80;;
20888;SDS011;10604;51.976;7.594;2022-12-16T05:40:48;29.58;;;15.35;;
20888;SDS011;10604;51.976;7.594;2022-12-16T05:43:32;32.25;;;16.65;;
20888;SDS011;10604;51.976;7.594;2022-12-16T05:46:16;26.48;;;14.98;;
20888;SDS011;10604;51.976;7.594;2022-12-16T05:49:00;27.60;;;16.17;;
20888;SDS011;10604;51.976;7.594;2022-12-16T05:51:44;31.63;;;16.52;;
20888;SDS011;10604;51.976;7.594;2022-12-16T05:54:28;24.48;;;15.85;;
20888;SDS011;10604;51.976;7.594;2022-12-16T05:57:12;25.67;;;15.07;;
20888;SDS011;10604;51.976;7.594;2022-12-16T05:59:56;28.40;;;16.70;;
20888;SDS011;10604;51.976;7.594;2022-12-16T06:02:39;27.15;;;16.27;;
20888;SDS011;10604;51.976;7.594;2022-12-16T06:05:23;28.95;;;16.73;;
20888;SDS011;10604;51.976;7.594;2022-12-16T06:08:07;31.45;;;15.35;;
20888;SDS011;10604;51.976;7.594;2022-12-16T06:10:51;26.48;;;15.60;;
20888;SDS011;10604;51.976;7.594;2022-12-16T06:13:35;25.42;;;14.93;;
20888;SDS011;10604;51.976;7.594;2022-12-16T06:16:19;21.50;;;13.10;;
20888;SDS011;10604;51.976;7.594;2022-12-16T06:19:03;27.30;;;16.98;;
20888;SDS011;10604;51.976;7.594;2022-12-16T06:21:47;27.58;;;16.70;;
20888;SDS011;10604;51.976;7.594;2022-12-16T06:24:31;28.60;;;17.30;;
20888;SDS011;10604;51.976;7.594;2022-12-16T06:27:15;27.65;;;17.10;;
20888;SDS011;10604;51.976;7.594;2022-12-16T06:29:59;27.67;;;14.98;;
20888;SDS011;10604;51.976;7.594;2022-12-16T06:32:43;36.28;;;17.20;;
20888;SDS011;10604;51.976;7.594;2022-12-16T06:35:27;25.98;;;16.50;;
20888;SDS011;10604;51.976;7.594;2022-12-16T06:38:11;22.65;;;15.93;;
20888;SDS011;10604;51.976;7.594;2022-12-16T06:40:55;26.73;;;15.70;;
20888;SDS011;10604;51.976;7.594;2022-12-16T06:43:39;30.95;;;16.73;;
20888;SDS011;10604;51.976;7.594;2022-12-16T06:46:36;27.60;;;14.70;;
20888;SDS011;10604;51.976;7.594;2022-12-16T06:49:20;28.77;;;17.45;;
20888;SDS011;10604;51.976;7.594;2022-12-16T06:52:04;24.55;;;14.40;;
20888;SDS011;10604;51.976;7.594;2022-12-16T06:54:48;25.15;;;16.10;;
20888;SDS011;10604;51.976;7.594;2022-12-16T06:57:32;24.30;;;14.80;;
20888;SDS011;10604;51.976;7.594;2022-12-16T07:00:16;25.88;;;15.50;;
20888;SDS011;10604;51.976;7.594;2022-12-16T07:02:59;29.90;;;16.92;;
20888;SDS011;10604;51.976;7.594;2022-12-16T07:05:43;23.40;;;14.40;;
20888;SDS011;10604;51.976;7.594;2022-12-16T07:08:27;31.15;;;15.43;;
20888;SDS011;10604;51.976;7.594;2022-12-16T07:11:11;29.52;;;14.50;;
20888;SDS011;10604;51.976;7.594;2022-12-16T07:13:55;22.75;;;14.38;;
20888;SDS011;10604;51.976;7.594;2022-12-16T07:16:39;24.60;;;13.88;;
20888;SDS011;10604;51.976;7.594;2022-12-16T07:19:23;25.98;;;14.52;;
20888;SDS011;10604;51.976;7.594;2022-12-16T07:22:07;29.60;;;16.00;;
20888;SDS011;10604;51.976;7.594;2022-12-16T07:24:51;22.60;;;14.05;;
20888;SDS011;10604;51.976;7.594;2022-12-16T07:27:35;28.08;;;15.45;;
20888;SDS011;10604;51.976;7.594;2022-12-16T07:30:19;25.42;;;14.05;;
20888;SDS011;10604;51.976;7.594;2022-12-16T07:33:03;22.85;;;13.60;;
20888;SDS011;10604;51.976;7.594;2022-12-16T07:35:47;24.30;;;14.45;;
20888;SDS011;10604;51.976;7.594;2022-12-16T07:38:31;20.67;;;14.30;;
20888;SDS011;10604;51.976;7.594;2022-12-16T07:41:15;21.92;;;13.70;;
20888;SDS011;10604;51.976;7.594;2022-12-16T07:43:59;30.08;;;15.95;;
20888;SDS011;10604;51.976;7.594;2022-12-16T07:46:43;22.23;;;14.15;;
20888;SDS011;10604;51.976;7.594;2022-12-16T07:49:27;29.50;;;15.45;;
20888;SDS011;10604;51.976;7.594;2022-12-16T07:52:11;23.15;;;14.18;;
20888;SDS011;10604;51.976;7.594;2022-12-16T07:54:51;24.67;;;14.60;;
20888;SDS011;10604;51.976;7.594;2022-12-16T07:57:35;32.60;;;16.10;;
20888;SDS011;10604;51.976;7.594;2022-12-16T08:00:19;31.80;;;13.85;;
20888;SDS011;10604;51.976;7.594;2022-12-16T08:03:03;32.60;;;15.88;;
20888;SDS011;10604;51.976;7.594;2022-12-16T08:05:47;26.60;;;17.17;;
20888;SDS011;10604;51.976;7.594;2022-12-16T08:08:31;24.98;;;15.07;;
20888;SDS011;10604;51.976;7.594;2022-12-16T08:11:15;29.65;;;15.77;;
20888;SDS011;10604;51.976;7.594;2022-12-16T08:13:59;31.42;;;14.25;;
20888;SDS011;10604;51.976;7.594;2022-12-16T08:16:43;24.10;;;14.32;;
20888;SDS011;10604;51.976;7.594;2022-12-16T08:19:27;27.42;;;16.10;;
20888;SDS011;10604;51.976;7.594;2022-12-16T08:22:11;25.30;;;15.60;;
20888;SDS011;10604;51.976;7.594;2022-12-16T08:24:55;25.08;;;14.75;;
20888;SDS011;10604;51.976;7.594;2022-12-16T08:27:39;28.98;;;15.00;;
20888;SDS011;10604;51.976;7.594;2022-12-16T08:30:23;23.33;;;16.23;;
20888;SDS011;10604;51.976;7.594;2022-12-16T08:33:07;21.95;;;14.88;;
20888;SDS011;10604;51.976;7.594;2022-12-16T08:35:51;29.10;;;16.17;;
20888;SDS011;10604;51.976;7.594;2022-12-16T08:38:35;20.90;;;14.25;;
20888;SDS011;10604;51.976;7.594;2022-12-16T08:41:19;36.38;;;17.67;;
20888;SDS011;10604;51.976;7.594;2022-12-16T08:44:03;28.98;;;15.60;;
20888;SDS011;10604;51.976;7.594;2022-12-16T08:46:47;26.27;;;16.55;;
20888;SDS011;10604;51.976;7.594;2022-12-16T08:49:31;27.38;;;17.27;;
20888;SDS011;10604;51.976;7.594;2022-12-16T08:52:15;26.98;;;16.08;;
20888;SDS011;10604;51.976;7.594;2022-12-16T08:54:59;33.67;;;18.80;;
20888;SDS011;10604;51.976;7.594;2022-12-16T08:57:50;32.33;;;17.40;;
20888;SDS011;10604;51.976;7.594;2022-12-16T09:00:35;33.05;;;18.30;;
20888;SDS011;10604;51.976;7.594;2022-12-16T09:03:19;30.27;;;16.75;;
20888;SDS011;10604;51.976;7.594;2022-12-16T09:06:03;29.08;;;16.85;;
20888;SDS011;10604;51.976;7.594;2022-12-16T09:08:47;28.55;;;16.65;;
20888;SDS011;10604;51.976;7.594;2022-12-16T09:11:31;31.55;;;20.80;;
20888;SDS011;10604;51.976;7.594;2022-12-16T09:14:15;41.10;;;22.83;;
20888;SDS011;10604;51.976;7.594;2022-12-16T09:16:59;58.03;;;29.88;;
20888;SDS011;10604;51.976;7.594;2022-12-16T09:19:43;45.97;;;24.77;;
20888;SDS011;10604;51.976;7.594;2022-12-16T09:22:27;32.85;;;19.40;;
20888;SDS011;10604;51.976;7.594;2022-12-16T09:25:11;33.05;;;20.10;;
20888;SDS011;10604;51.976;7.594;2022-12-16T09:27:55;32.60;;;19.65;;
20888;SDS011;10604;51.976;7.594;2022-12-16T09:30:39;40.15;;;20.40;;
20888;SDS011;10604;51.976;7.594;2022-12-16T09:33:23;32.33;;;19.27;;
20888;SDS011;10604;51.976;7.594;2022-12-16T09:36:07;34.85;;;19.67;;
20888;SDS011;10604;51.976;7.594;2022-12-16T09:38:51;39.53;;;22.02;;
20888;SDS011;10604;51.976;7.594;2022-12-16T09:41:42;34.92;;;20.77;;
20888;SDS011;10604;51.976;7.594;2022-12-16T09:44:30;32.85;;;19.00;;
20888;SDS011;10604;51.976;7.594;2022-12-16T09:47:34;36.08;;;20.55;;
20888;SDS011;10604;51.976;7.594;2022-12-16T09:50:29;34.28;;;19.13;;
20888;SDS011;10604;51.976;7.594;2022-12-16T09:53:14;36.55;;;19.83;;
20888;SDS011;10604;51.976;7.594;2022-12-16T09:56:03;37.55;;;20.48;;
20888;SDS011;10604;51.976;7.594;2022-12-16T09:58:55;35.63;;;20.65;;
20888;SDS011;10604;51.976;7.594;2022-12-16T10:01:41;34.50;;;21.92;;
20888;SDS011;10604;51.976;7.594;2022-12-16T10:04:26;41.22;;;23.42;;
20888;SDS011;10604;51.976;7.594;2022-12-16T10:07:13;55.67;;;26.38;;
20888;SDS011;10604;51.976;7.594;2022-12-16T10:10:17;40.83;;;25.15;;
20888;SDS011;10604;51.976;7.594;2022-12-16T10:13:18;39.88;;;23.58;;
20888;SDS011;10604;51.976;7.594;2022-12-16T10:25:31;41.30;;;23.30;;
20888;SDS011;10604;51.976;7.594;2022-12-16T10:28:44;38.22;;;22.92;;
20888;SDS011;10604;51.976;7.594;2022-12-16T10:31:30;34.50;;;21.63;;
20888;SDS011;10604;51.976;7.594;2022-12-16T10:34:20;39.65;;;22.95;;
20888;SDS011;10604;51.976;7.594;2022-12-16T10:37:11;38.78;;;22.55;;
20888;SDS011;10604;51.976;7.594;2022-12-16T10:39:59;43.83;;;23.75;;
20888;SDS011;10604;51.976;7.594;2022-12-16T10:46:11;41.13;;;25.67;;
20888;SDS011;10604;51.976;7.594;2022-12-16T10:49:00;42.08;;;24.63;;
20888;SDS011;10604;51.976;7.594;2022-12-16T10:51:44;34.72;;;23.17;;
20888;SDS011;10604;51.976;7.594;2022-12-16T10:54:39;35.88;;;23.40;;
20888;SDS011;10604;51.976;7.594;2022-12-16T11:00:45;41.35;;;25.35;;
20888;SDS011;10604;51.976;7.594;2022-12-16T11:03:31;39.83;;;24.75;;
20888;SDS011;10604;51.976;7.594;2022-12-16T11:06:19;35.67;;;22.98;;
20888;SDS011;10604;51.976;7.594;2022-12-16T11:09:13;32.60;;;20.35;;
20888;SDS011;10604;51.976;7.594;2022-12-16T11:15:00;33.28;;;21.27;;
20888;SDS011;10604;51.976;7.594;2022-12-16T11:18:01;31.63;;;21.20;;
20888;SDS011;10604;51.976;7.594;2022-12-16T11:24:03;30.95;;;21.65;;
20888;SDS011;10604;51.976;7.594;2022-12-16T11:26:58;33.30;;;20.83;;
20888;SDS011;10604;51.976;7.594;2022-12-16T11:32:42;34.70;;;21.63;;
20888;SDS011;10604;51.976;7.594;2022-12-16T11:35:30;31.20;;;21.77;;
20888;SDS011;10604;51.976;7.594;2022-12-16T11:38:21;32.05;;;21.58;;
20888;SDS011;10604;51.976;7.594;2022-12-16T11:41:10;37.45;;;24.08;;
20888;SDS011;10604;51.976;7.594;2022-12-16T11:44:10;36.45;;;24.33;;
20888;SDS011;10604;51.976;7.594;2022-12-16T11:47:09;37.63;;;22.77;;
20888;SDS011;10604;51.976;7.594;2022-12-16T11:49:58;35.67;;;23.92;;
20888;SDS011;10604;51.976;7.594;2022-12-16T11:52:43;35.38;;;23.88;;
20888;SDS011;10604;51.976;7.594;2022-12-16T11:55:35;37.60;;;25.25;;
20888;SDS011;10604;51.976;7.594;2022-12-16T11:58:22;32.25;;;22.40;;
20888;SDS011;10604;51.976;7.594;2022-12-16T12:01:52;36.35;;;23.83;;
20888;SDS011;10604;51.976;7.594;2022-12-16T12:04:32;35.15;;;22.20;;
20888;SDS011;10604;51.976;7.594;2022-12-16T12:07:28;37.90;;;23.38;;
20888;SDS011;10604;51.976;7.594;2022-12-16T12:16:41;32.85;;;21.60;;
20888;SDS011;10604;51.976;7.594;2022-12-16T12:19:34;29.10;;;19.92;;
20888;SDS011;10604;51.976;7.594;2022-12-16T12:22:35;29.05;;;19.63;;
20888;SDS011;10604;51.976;7.594;2022-12-16T12:25:23;30.52;;;18.95;;
20888;SDS011;10604;51.976;7.594;2022-12-16T12:28:32;29.35;;;20.08;;
20888;SDS011;10604;51.976;7.594;2022-12-16T12:34:34;29.50;;;19.20;;
20888;SDS011;10604;51.976;7.594;2022-12-16T12:37:25;34.97;;;20.77;;
20888;SDS011;10604;51.976;7.594;2022-12-16T12:46:21;32.40;;;20.42;;
20888;SDS011;10604;51.976;7.594;2022-12-16T12:49:38;35.15;;;20.42;;
20888;SDS011;10604;51.976;7.594;2022-12-16T12:58:48;28.63;;;19.48;;
20888;SDS011;10604;51.976;7.594;2022-12-16T13:01:35;33.13;;;19.25;;
20888;SDS011;10604;51.976;7.594;2022-12-16T13:04:23;38.53;;;19.73;;
20888;SDS011;10604;51.976;7.594;2022-12-16T13:07:10;36.75;;;19.77;;
20888;SDS011;10604;51.976;7.594;2022-12-16T13:16:01;29.27;;;18.73;;
20888;SDS011;10604;51.976;7.594;2022-12-16T13:18:47;29.05;;;19.42;;
20888;SDS011;10604;51.976;7.594;2022-12-16T13:27:09;30.45;;;20.77;;
20888;SDS011;10604;51.976;7.594;2022-12-16T13:30:03;31.25;;;18.70;;
20888;SDS011;10604;51.976;7.594;2022-12-16T13:33:26;33.05;;;19.85;;
20888;SDS011;10604;51.976;7.594;2022-12-16T13:36:13;28.45;;;19.40;;
20888;SDS011;10604;51.976;7.594;2022-12-16T13:48:28;36.92;;;22.15;;
20888;SDS011;10604;51.976;7.594;2022-12-16T13:54:30;31.55;;;20.55;;
20888;SDS011;10604;51.976;7.594;2022-12-16T13:57:20;31.20;;;20.30;;
20888;SDS011;10604;51.976;7.594;2022-12-16T14:00:15;32.92;;;21.67;;
20888;SDS011;10604;51.976;7.594;2022-12-16T14:03:01;35.22;;;21.88;;
20888;SDS011;10604;51.976;7.594;2022-12-16T14:05:46;40.05;;;22.25;;
20888;SDS011;10604;51.976;7.594;2022-12-16T14:08:32;43.63;;;26.38;;
20888;SDS011;10604;51.976;7.594;2022-12-16T14:11:35;39.13;;;23.67;;
20888;SDS011;10604;51.976;7.594;2022-12-16T14:14:30;35.05;;;22.23;;
20888;SDS011;10604;51.976;7.594;2022-12-16T14:17:42;39.30;;;22.58;;
20888;SDS011;10604;51.976;7.594;2022-12-16T14:20:53;33.08;;;21.38;;
20888;SDS011;10604;51.976;7.594;2022-12-16T14:23:56;37.28;;;22.95;;
20888;SDS011;10604;51.976;7.594;2022-12-16T14:26:50;34.85;;;21.95;;
20888;SDS011;10604;51.976;7.594;2022-12-16T14:29:35;33.72;;;20.90;;
20888;SDS011;10604;51.976;7.594;2022-12-16T14:35:21;31.45;;;20.20;;
20888;SDS011;10604;51.976;7.594;2022-12-16T14:38:23;38.45;;;20.75;;
20888;SDS011;10604;51.976;7.594;2022-12-16T14:41:25;38.00;;;21.80;;
20888;SDS011;10604;51.976;7.594;2022-12-16T14:44:22;31.25;;;19.60;;
20888;SDS011;10604;51.976;7.594;2022-12-16T14:47:14;33.58;;;20.67;;
20888;SDS011;10604;51.976;7.594;2022-12-16T14:50:01;34.35;;;21.50;;
20888;SDS011;10604;51.976;7.594;2022-12-16T14:52:45;33.88;;;20.38;;
20888;SDS011;10604;51.976;7.594;2022-12-16T14:55:33;36.22;;;22.10;;
20888;SDS011;10604;51.976;7.594;2022-12-16T14:58:37;34.22;;;20.70;;
20888;SDS011;10604;51.976;7.594;2022-12-16T15:01:21;32.08;;;20.38;;
20888;SDS011;10604;51.976;7.594;2022-12-16T15:04:16;34.13;;;21.27;;
20888;SDS011;10604;51.976;7.594;2022-12-16T15:07:30;35.47;;;21.10;;
20888;SDS011;10604;51.976;7.594;2022-12-16T15:10:19;40.60;;;22.77;;
20888;SDS011;10604;51.976;7.594;2022-12-16T15:13:10;39.13;;;24.25;;
20888;SDS011;10604;51.976;7.594;2022-12-16T15:15:58;38.03;;;21.33;;
20888;SDS011;10604;51.976;7.594;2022-12-16T15:18:43;40.63;;;22.80;;
20888;SDS011;10604;51.976;7.594;2022-12-16T15:21:33;36.90;;;22.45;;
20888;SDS011;10604;51.976;7.594;2022-12-16T15:24:18;41.55;;;23.73;;
20888;SDS011;10604;51.976;7.594;2022-12-16T15:27:13;39.38;;;22.10;;
20888;SDS011;10604;51.976;7.594;2022-12-16T15:29:57;38.75;;;23.20;;
20888;SDS011;10604;51.976;7.594;2022-12-16T15:32:42;44.35;;;24.40;;
20888;SDS011;10604;51.976;7.594;2022-12-16T15:35:35;42.30;;;25.38;;
20888;SDS011;10604;51.976;7.594;2022-12-16T15:38:30;39.92;;;23.42;;
20888;SDS011;10604;51.976;7.594;2022-12-16T15:41:19;37.67;;;23.13;;
20888;SDS011;10604;51.976;7.594;2022-12-16T15:44:13;41.33;;;23.65;;
20888;SDS011;10604;51.976;7.594;2022-12-16T15:46:58;36.60;;;22.90;;
20888;SDS011;10604;51.976;7.594;2022-12-16T15:49:43;44.90;;;24.95;;
20888;SDS011;10604;51.976;7.594;2022-12-16T15:58:26;40.70;;;24.65;;
20888;SDS011;10604;51.976;7.594;2022-12-16T16:01:13;38.45;;;23.00;;
20888;SDS011;10604;51.976;7.594;2022-12-16T16:04:18;33.67;;;20.98;;
20888;SDS011;10604;51.976;7.594;2022-12-16T16:10:21;31.27;;;19.67;;
20888;SDS011;10604;51.976;7.594;2022-12-16T16:13:07;34.38;;;21.48;;
20888;SDS011;10604;51.976;7.594;2022-12-16T16:15:52;33.38;;;19.58;;
20888;SDS011;10604;51.976;7.594;2022-12-16T16:18:36;32.08;;;19.98;;
20888;SDS011;10604;51.976;7.594;2022-12-16T16:21:20;34.22;;;19.35;;
20888;SDS011;10604;51.976;7.594;2022-12-16T16:24:05;34.42;;;20.50;;
20888;SDS011;10604;51.976;7.594;2022-12-16T16:26:50;33.42;;;20.55;;
20888;SDS011;10604;51.976;7.594;2022-12-16T16:29:36;34.92;;;21.08;;
20888;SDS011;10604;51.976;7.594;2022-12-16T16:32:20;33.85;;;20.55;;
20888;SDS011;10604;51.976;7.594;2022-12-16T16:35:18;38.60;;;21.55;;
20888;SDS011;10604;51.976;7.594;2022-12-16T16:38:01;33.17;;;20.42;;
20888;SDS011;10604;51.976;7.594;2022-12-16T16:40:45;34.42;;;20.85;;
20888;SDS011;10604;51.976;7.594;2022-12-16T16:43:29;39.03;;;21.95;;
20888;SDS011;10604;51.976;7.594;2022-12-16T16:49:07;34.28;;;20.13;;
20888;SDS011;10604;51.976;7.594;2022-12-16T16:51:52;36.17;;;22.00;;
20888;SDS011;10604;51.976;7.594;2022-12-16T16:54:36;41.75;;;23.92;;
20888;SDS011;10604;51.976;7.594;2022-12-16T16:57:20;42.33;;;25.58;;
20888;SDS011;10604;51.976;7.594;2022-12-16T17:00:04;42.15;;;24.00;;
20888;SDS011;10604;51.976;7.594;2022-12-16T17:02:49;49.28;;;26.77;;
20888;SDS011;10604;51.976;7.594;2022-12-16T17:05:32;54.75;;;28.50;;
20888;SDS011;10604;51.976;7.594;2022-12-16T17:08:16;48.00;;;28.42;;
20888;SDS011;10604;51.976;7.594;2022-12-16T17:11:00;45.67;;;28.42;;
20888;SDS011;10604;51.976;7.594;2022-12-16T17:13:44;46.25;;;27.85;;
20888;SDS011;10604;51.976;7.594;2022-12-16T17:16:28;50.25;;;28.95;;
20888;SDS011;10604;51.976;7.594;2022-12-16T17:19:12;52.45;;;27.08;;
20888;SDS011;10604;51.976;7.594;2022-12-16T17:21:56;48.90;;;27.30;;
20888;SDS011;10604;51.976;7.594;2022-12-16T17:24:40;48.65;;;25.65;;
20888;SDS011;10604;51.976;7.594;2022-12-16T17:27:24;50.58;;;25.73;;
20888;SDS011;10604;51.976;7.594;2022-12-16T17:30:19;49.28;;;25.88;;
20888;SDS011;10604;51.976;7.594;2022-12-16T17:33:06;44.22;;;24.38;;
20888;SDS011;10604;51.976;7.594;2022-12-16T17:35:50;40.65;;;23.77;;
20888;SDS011;10604;51.976;7.594;2022-12-16T17:38:39;43.45;;;24.63;;
20888;SDS011;10604;51.976;7.594;2022-12-16T17:41:26;49.33;;;26.83;;
20888;SDS011;10604;51.976;7.594;2022-12-16T17:44:11;50.78;;;28.15;;
20888;SDS011;10604;51.976;7.594;2022-12-16T17:46:55;51.55;;;27.55;;
20888;SDS011;10604;51.976;7.594;2022-12-16T17:49:39;58.65;;;29.98;;
20888;SDS011;10604;51.976;7.594;2022-12-16T17:52:23;50.67;;;30.27;;
20888;SDS011;10604;51.976;7.594;2022-12-16T17:55:07;54.35;;;29.55;;
20888;SDS011;10604;51.976;7.594;2022-12-16T17:57:52;50.85;;;28.63;;
20888;SDS011;10604;51.976;7.594;2022-12-16T18:00:39;56.28;;;31.23;;
20888;SDS011;10604;51.976;7.594;2022-12-16T18:03:23;52.78;;;29.63;;